sensor_id;sensor_type;location;lat;lon;timestamp;P1;durP1;ratioP1;P2;durP2;ratioP2
37771;SDS011;23610;59.380;24.642;2022-08-03T00:00:51;2.22;;;2.03;;
37771;SDS011;23610;59.380;24.642;2022-08-03T00:05:54;4.35;;;1.70;;
37771;SDS011;23610;59.380;24.642;2022-08-03T00:11:05;5.00;;;1.70;;
37771;SDS011;23610;59.380;24.642;2022-08-03T00:16:08;3.42;;;1.73;;
37771;SDS011;23610;59.380;24.642;2022-08-03T00:21:11;2.65;;;1.92;;
37771;SDS011;23610;59.380;24.642;2022-08-03T00:26:16;2.47;;;2.28;;
37771;SDS011;23610;59.380;24.642;2022-08-03T00:31:18;1.65;;;1.55;;
37771;SDS011;23610;59.380;24.642;2022-08-03T00:36:40;1.75;;;1.65;;
37771;SDS011;23610;59.380;24.642;2022-08-03T00:41:43;2.08;;;1.52;;
37771;SDS011;23610;59.380;24.642;2022-08-03T00:46:45;1.77;;;1.65;;
37771;SDS011;23610;59.380;24.642;2022-08-03T00:51:48;1.27;;;1.17;;
37771;SDS011;23610;59.380;24.642;2022-08-03T00:56:50;1.30;;;1.20;;
37771;SDS011;23610;59.380;24.642;2022-08-03T01:02:00;2.17;;;1.42;;
37771;SDS011;23610;59.380;24.642;2022-08-03T01:13:12;1.58;;;1.48;;
37771;SDS011;23610;59.380;24.642;2022-08-03T01:19:30;3.05;;;1.35;;
37771;SDS011;23610;59.380;24.642;2022-08-03T01:24:48;2.30;;;1.40;;
37771;SDS011;23610;59.380;24.642;2022-08-03T01:30:14;6.90;;;2.30;;
37771;SDS011;23610;59.380;24.642;2022-08-03T01:35:51;1.80;;;1.70;;
37771;SDS011;23610;59.380;24.642;2022-08-03T01:40:52;2.03;;;1.85;;
37771;SDS011;23610;59.380;24.642;2022-08-03T01:45:56;2.27;;;2.07;;
37771;SDS011;23610;59.380;24.642;2022-08-03T01:50:59;5.05;;;2.05;;
37771;SDS011;23610;59.380;24.642;2022-08-03T01:56:02;2.95;;;2.20;;
37771;SDS011;23610;59.380;24.642;2022-08-03T02:01:06;2.93;;;2.60;;
37771;SDS011;23610;59.380;24.642;2022-08-03T02:06:11;4.00;;;2.37;;
37771;SDS011;23610;59.380;24.642;2022-08-03T02:11:34;4.63;;;2.40;;
37771;SDS011;23610;59.380;24.642;2022-08-03T02:16:38;4.25;;;2.63;;
37771;SDS011;23610;59.380;24.642;2022-08-03T02:21:41;5.82;;;2.22;;
37771;SDS011;23610;59.380;24.642;2022-08-03T02:27:01;4.53;;;2.00;;
37771;SDS011;23610;59.380;24.642;2022-08-03T02:32:12;1.80;;;1.70;;
37771;SDS011;23610;59.380;24.642;2022-08-03T02:37:20;2.67;;;2.10;;
37771;SDS011;23610;59.380;24.642;2022-08-03T02:42:29;4.25;;;2.10;;
37771;SDS011;23610;59.380;24.642;2022-08-03T02:47:34;5.22;;;1.75;;
37771;SDS011;23610;59.380;24.642;2022-08-03T02:52:54;2.88;;;1.40;;
37771;SDS011;23610;59.380;24.642;2022-08-03T02:57:58;2.30;;;1.67;;
37771;SDS011;23610;59.380;24.642;2022-08-03T03:03:02;10.83;;;1.80;;
37771;SDS011;23610;59.380;24.642;2022-08-03T03:08:07;1.58;;;1.35;;
37771;SDS011;23610;59.380;24.642;2022-08-03T03:13:20;2.17;;;1.98;;
37771;SDS011;23610;59.380;24.642;2022-08-03T03:18:26;1.67;;;1.57;;
37771;SDS011;23610;59.380;24.642;2022-08-03T03:23:31;2.15;;;2.05;;
37771;SDS011;23610;59.380;24.642;2022-08-03T03:28:37;2.90;;;2.42;;
37771;SDS011;23610;59.380;24.642;2022-08-03T03:33:40;1.83;;;1.73;;
37771;SDS011;23610;59.380;24.642;2022-08-03T03:38:43;2.35;;;2.03;;
37771;SDS011;23610;59.380;24.642;2022-08-03T03:43:45;1.98;;;1.88;;
37771;SDS011;23610;59.380;24.642;2022-08-03T03:48:51;3.13;;;2.17;;
37771;SDS011;23610;59.380;24.642;2022-08-03T03:53:55;2.72;;;2.53;;
37771;SDS011;23610;59.380;24.642;2022-08-03T03:59:02;3.15;;;2.05;;
37771;SDS011;23610;59.380;24.642;2022-08-03T04:04:05;2.80;;;2.33;;
37771;SDS011;23610;59.380;24.642;2022-08-03T04:09:26;6.55;;;1.58;;
37771;SDS011;23610;59.380;24.642;2022-08-03T04:14:47;3.33;;;1.50;;
37771;SDS011;23610;59.380;24.642;2022-08-03T04:19:51;1.55;;;1.45;;
37771;SDS011;23610;59.380;24.642;2022-08-03T04:25:02;3.03;;;2.25;;
37771;SDS011;23610;59.380;24.642;2022-08-03T04:30:09;3.25;;;2.67;;
37771;SDS011;23610;59.380;24.642;2022-08-03T04:35:12;2.22;;;2.03;;
37771;SDS011;23610;59.380;24.642;2022-08-03T04:40:24;3.88;;;3.28;;
37771;SDS011;23610;59.380;24.642;2022-08-03T04:45:35;3.97;;;3.00;;
37771;SDS011;23610;59.380;24.642;2022-08-03T04:50:38;5.53;;;2.88;;
37771;SDS011;23610;59.380;24.642;2022-08-03T04:55:43;12.02;;;2.88;;
37771;SDS011;23610;59.380;24.642;2022-08-03T05:00:45;3.15;;;2.65;;
37771;SDS011;23610;59.380;24.642;2022-08-03T05:05:51;3.13;;;2.53;;
37771;SDS011;23610;59.380;24.642;2022-08-03T05:11:09;2.80;;;2.25;;
37771;SDS011;23610;59.380;24.642;2022-08-03T05:16:12;3.45;;;2.72;;
37771;SDS011;23610;59.380;24.642;2022-08-03T05:21:16;2.72;;;2.53;;
37771;SDS011;23610;59.380;24.642;2022-08-03T05:26:18;4.55;;;2.88;;
37771;SDS011;23610;59.380;24.642;2022-08-03T05:31:21;4.32;;;2.55;;
37771;SDS011;23610;59.380;24.642;2022-08-03T05:36:23;3.08;;;2.85;;
37771;SDS011;23610;59.380;24.642;2022-08-03T05:41:26;3.40;;;3.10;;
37771;SDS011;23610;59.380;24.642;2022-08-03T05:46:37;4.15;;;3.30;;
37771;SDS011;23610;59.380;24.642;2022-08-03T05:51:40;6.38;;;3.25;;
37771;SDS011;23610;59.380;24.642;2022-08-03T05:56:42;7.97;;;3.10;;
37771;SDS011;23610;59.380;24.642;2022-08-03T06:01:45;4.90;;;2.60;;
37771;SDS011;23610;59.380;24.642;2022-08-03T06:06:48;4.78;;;3.40;;
37771;SDS011;23610;59.380;24.642;2022-08-03T06:11:51;5.30;;;2.75;;
37771;SDS011;23610;59.380;24.642;2022-08-03T06:16:53;4.45;;;3.35;;
37771;SDS011;23610;59.380;24.642;2022-08-03T06:21:56;3.30;;;2.30;;
37771;SDS011;23610;59.380;24.642;2022-08-03T06:27:00;2.87;;;2.27;;
37771;SDS011;23610;59.380;24.642;2022-08-03T06:32:02;4.35;;;2.33;;
37771;SDS011;23610;59.380;24.642;2022-08-03T06:37:05;6.80;;;2.72;;
37771;SDS011;23610;59.380;24.642;2022-08-03T06:42:08;4.82;;;2.72;;
37771;SDS011;23610;59.380;24.642;2022-08-03T06:47:11;3.38;;;2.83;;
37771;SDS011;23610;59.380;24.642;2022-08-03T06:52:14;2.95;;;2.63;;
37771;SDS011;23610;59.380;24.642;2022-08-03T06:57:36;2.60;;;2.40;;
37771;SDS011;23610;59.380;24.642;2022-08-03T07:02:39;2.70;;;2.50;;
37771;SDS011;23610;59.380;24.642;2022-08-03T07:07:42;3.88;;;2.72;;
37771;SDS011;23610;59.380;24.642;2022-08-03T07:12:45;7.13;;;2.80;;
37771;SDS011;23610;59.380;24.642;2022-08-03T07:17:57;8.38;;;2.17;;
37771;SDS011;23610;59.380;24.642;2022-08-03T07:23:00;4.63;;;2.53;;
37771;SDS011;23610;59.380;24.642;2022-08-03T07:28:02;3.30;;;1.60;;
37771;SDS011;23610;59.380;24.642;2022-08-03T07:33:05;3.65;;;1.80;;
37771;SDS011;23610;59.380;24.642;2022-08-03T07:38:08;5.78;;;2.00;;
37771;SDS011;23610;59.380;24.642;2022-08-03T07:43:10;3.67;;;1.35;;
37771;SDS011;23610;59.380;24.642;2022-08-03T07:48:13;7.50;;;1.63;;
37771;SDS011;23610;59.380;24.642;2022-08-03T07:53:16;6.25;;;1.50;;
37771;SDS011;23610;59.380;24.642;2022-08-03T07:58:18;7.85;;;2.03;;
37771;SDS011;23610;59.380;24.642;2022-08-03T08:03:24;2.17;;;1.23;;
37771;SDS011;23610;59.380;24.642;2022-08-03T08:08:27;6.75;;;1.38;;
37771;SDS011;23610;59.380;24.642;2022-08-03T08:13:30;1.75;;;1.40;;
37771;SDS011;23610;59.380;24.642;2022-08-03T08:18:32;2.70;;;1.20;;
37771;SDS011;23610;59.380;24.642;2022-08-03T08:23:35;6.88;;;1.48;;
37771;SDS011;23610;59.380;24.642;2022-08-03T08:28:44;3.70;;;1.17;;
37771;SDS011;23610;59.380;24.642;2022-08-03T08:33:47;2.53;;;1.40;;
37771;SDS011;23610;59.380;24.642;2022-08-03T08:39:04;1.95;;;0.98;;
37771;SDS011;23610;59.380;24.642;2022-08-03T08:44:07;2.25;;;1.08;;
37771;SDS011;23610;59.380;24.642;2022-08-03T08:49:10;6.93;;;1.33;;
37771;SDS011;23610;59.380;24.642;2022-08-03T08:54:18;4.35;;;1.55;;
37771;SDS011;23610;59.380;24.642;2022-08-03T08:59:24;1.48;;;1.10;;
37771;SDS011;23610;59.380;24.642;2022-08-03T09:04:48;3.40;;;1.13;;
37771;SDS011;23610;59.380;24.642;2022-08-03T09:09:51;3.77;;;1.50;;
37771;SDS011;23610;59.380;24.642;2022-08-03T09:15:23;2.05;;;1.50;;
37771;SDS011;23610;59.380;24.642;2022-08-03T09:20:33;4.10;;;1.35;;
37771;SDS011;23610;59.380;24.642;2022-08-03T09:25:40;0.95;;;0.93;;
37771;SDS011;23610;59.380;24.642;2022-08-03T09:30:44;2.60;;;1.10;;
37771;SDS011;23610;59.380;24.642;2022-08-03T09:36:00;2.45;;;1.30;;
37771;SDS011;23610;59.380;24.642;2022-08-03T09:41:02;1.85;;;1.10;;
37771;SDS011;23610;59.380;24.642;2022-08-03T09:46:19;3.33;;;1.65;;
37771;SDS011;23610;59.380;24.642;2022-08-03T09:51:24;11.77;;;1.20;;
37771;SDS011;23610;59.380;24.642;2022-08-03T09:56:48;3.65;;;1.27;;
37771;SDS011;23610;59.380;24.642;2022-08-03T10:01:50;5.78;;;1.60;;
37771;SDS011;23610;59.380;24.642;2022-08-03T10:07:00;2.90;;;1.45;;
37771;SDS011;23610;59.380;24.642;2022-08-03T10:12:11;3.38;;;1.25;;
37771;SDS011;23610;59.380;24.642;2022-08-03T10:17:15;3.65;;;1.50;;
37771;SDS011;23610;59.380;24.642;2022-08-03T10:22:20;4.80;;;1.40;;
37771;SDS011;23610;59.380;24.642;2022-08-03T10:27:25;5.85;;;1.30;;
37771;SDS011;23610;59.380;24.642;2022-08-03T10:38:46;4.00;;;1.40;;
37771;SDS011;23610;59.380;24.642;2022-08-03T10:43:57;3.75;;;1.27;;
37771;SDS011;23610;59.380;24.642;2022-08-03T10:49:07;3.35;;;1.50;;
37771;SDS011;23610;59.380;24.642;2022-08-03T10:54:46;4.60;;;1.35;;
37771;SDS011;23610;59.380;24.642;2022-08-03T11:00:10;3.90;;;2.08;;
37771;SDS011;23610;59.380;24.642;2022-08-03T11:05:33;0.85;;;0.80;;
37771;SDS011;23610;59.380;24.642;2022-08-03T11:10:46;5.53;;;1.42;;
37771;SDS011;23610;59.380;24.642;2022-08-03T11:15:55;3.45;;;1.08;;
37771;SDS011;23610;59.380;24.642;2022-08-03T11:21:03;5.20;;;0.90;;
37771;SDS011;23610;59.380;24.642;2022-08-03T11:26:09;3.70;;;1.17;;
37771;SDS011;23610;59.380;24.642;2022-08-03T11:47:36;2.97;;;1.35;;
37771;SDS011;23610;59.380;24.642;2022-08-03T11:52:51;1.55;;;0.60;;
37771;SDS011;23610;59.380;24.642;2022-08-03T11:57:57;1.27;;;0.70;;
37771;SDS011;23610;59.380;24.642;2022-08-03T12:03:20;1.08;;;0.63;;
37771;SDS011;23610;59.380;24.642;2022-08-03T12:13:38;4.38;;;0.80;;
37771;SDS011;23610;59.380;24.642;2022-08-03T12:19:11;3.42;;;1.15;;
37771;SDS011;23610;59.380;24.642;2022-08-03T12:24:14;3.03;;;1.45;;
37771;SDS011;23610;59.380;24.642;2022-08-03T12:29:18;1.50;;;0.80;;
37771;SDS011;23610;59.380;24.642;2022-08-03T12:34:23;1.20;;;0.65;;
37771;SDS011;23610;59.380;24.642;2022-08-03T12:39:54;0.70;;;0.70;;
37771;SDS011;23610;59.380;24.642;2022-08-03T12:45:20;3.28;;;0.73;;
37771;SDS011;23610;59.380;24.642;2022-08-03T12:50:27;0.93;;;0.55;;
37771;SDS011;23610;59.380;24.642;2022-08-03T12:55:33;1.10;;;0.82;;
37771;SDS011;23610;59.380;24.642;2022-08-03T13:00:59;1.17;;;0.60;;
37771;SDS011;23610;59.380;24.642;2022-08-03T13:11:26;1.13;;;0.40;;
37771;SDS011;23610;59.380;24.642;2022-08-03T13:16:48;1.77;;;1.48;;
37771;SDS011;23610;59.380;24.642;2022-08-03T13:21:51;1.10;;;0.40;;
37771;SDS011;23610;59.380;24.642;2022-08-03T13:27:05;0.52;;;0.52;;
37771;SDS011;23610;59.380;24.642;2022-08-03T13:32:28;1.67;;;0.60;;
37771;SDS011;23610;59.380;24.642;2022-08-03T13:37:30;1.05;;;0.32;;
37771;SDS011;23610;59.380;24.642;2022-08-03T13:42:33;0.80;;;0.60;;
37771;SDS011;23610;59.380;24.642;2022-08-03T13:47:38;1.10;;;0.70;;
37771;SDS011;23610;59.380;24.642;2022-08-03T13:52:41;1.42;;;0.73;;
37771;SDS011;23610;59.380;24.642;2022-08-03T13:57:46;0.68;;;0.63;;
37771;SDS011;23610;59.380;24.642;2022-08-03T14:03:07;2.63;;;0.68;;
37771;SDS011;23610;59.380;24.642;2022-08-03T14:08:15;4.30;;;0.68;;
37771;SDS011;23610;59.380;24.642;2022-08-03T14:13:17;1.33;;;0.73;;
37771;SDS011;23610;59.380;24.642;2022-08-03T14:18:20;2.05;;;0.68;;
37771;SDS011;23610;59.380;24.642;2022-08-03T14:23:29;5.60;;;1.02;;
37771;SDS011;23610;59.380;24.642;2022-08-03T14:28:33;1.17;;;0.60;;
37771;SDS011;23610;59.380;24.642;2022-08-03T14:33:36;3.38;;;0.60;;
37771;SDS011;23610;59.380;24.642;2022-08-03T14:38:39;3.08;;;1.00;;
37771;SDS011;23610;59.380;24.642;2022-08-03T14:43:41;0.55;;;0.50;;
37771;SDS011;23610;59.380;24.642;2022-08-03T14:49:02;4.88;;;0.65;;
37771;SDS011;23610;59.380;24.642;2022-08-03T14:54:25;1.55;;;1.27;;
37771;SDS011;23610;59.380;24.642;2022-08-03T14:59:31;6.07;;;1.13;;
37771;SDS011;23610;59.380;24.642;2022-08-03T15:04:53;0.75;;;0.75;;
37771;SDS011;23610;59.380;24.642;2022-08-03T15:09:56;2.58;;;1.15;;
37771;SDS011;23610;59.380;24.642;2022-08-03T15:15:02;1.05;;;0.70;;
37771;SDS011;23610;59.380;24.642;2022-08-03T15:20:05;3.40;;;0.90;;
37771;SDS011;23610;59.380;24.642;2022-08-03T15:25:31;3.13;;;0.73;;
37771;SDS011;23610;59.380;24.642;2022-08-03T15:30:54;2.45;;;1.33;;
37771;SDS011;23610;59.380;24.642;2022-08-03T15:35:58;4.80;;;1.10;;
37771;SDS011;23610;59.380;24.642;2022-08-03T15:41:00;2.75;;;1.02;;
37771;SDS011;23610;59.380;24.642;2022-08-03T15:46:03;7.63;;;1.17;;
37771;SDS011;23610;59.380;24.642;2022-08-03T15:51:27;2.33;;;1.05;;
37771;SDS011;23610;59.380;24.642;2022-08-03T15:56:30;5.85;;;1.60;;
37771;SDS011;23610;59.380;24.642;2022-08-03T16:01:32;7.55;;;1.75;;
37771;SDS011;23610;59.380;24.642;2022-08-03T16:06:35;13.43;;;3.42;;
37771;SDS011;23610;59.380;24.642;2022-08-03T16:11:38;11.65;;;3.28;;
37771;SDS011;23610;59.380;24.642;2022-08-03T16:16:40;4.10;;;1.30;;
37771;SDS011;23610;59.380;24.642;2022-08-03T16:21:43;12.30;;;1.90;;
37771;SDS011;23610;59.380;24.642;2022-08-03T16:26:50;4.30;;;1.42;;
37771;SDS011;23610;59.380;24.642;2022-08-03T16:31:53;3.22;;;1.02;;
37771;SDS011;23610;59.380;24.642;2022-08-03T16:36:55;4.72;;;1.52;;
37771;SDS011;23610;59.380;24.642;2022-08-03T16:41:58;4.55;;;2.55;;
37771;SDS011;23610;59.380;24.642;2022-08-03T16:47:02;7.75;;;2.38;;
37771;SDS011;23610;59.380;24.642;2022-08-03T16:52:04;8.90;;;1.30;;
37771;SDS011;23610;59.380;24.642;2022-08-03T16:57:07;2.80;;;1.63;;
37771;SDS011;23610;59.380;24.642;2022-08-03T17:07:26;7.68;;;2.10;;
37771;SDS011;23610;59.380;24.642;2022-08-03T17:12:30;4.93;;;1.23;;
37771;SDS011;23610;59.380;24.642;2022-08-03T17:17:33;5.03;;;1.85;;
37771;SDS011;23610;59.380;24.642;2022-08-03T17:22:55;3.33;;;1.50;;
37771;SDS011;23610;59.380;24.642;2022-08-03T17:28:40;4.95;;;1.27;;
37771;SDS011;23610;59.380;24.642;2022-08-03T17:33:58;3.65;;;1.20;;
37771;SDS011;23610;59.380;24.642;2022-08-03T17:39:04;6.78;;;1.95;;
37771;SDS011;23610;59.380;24.642;2022-08-03T17:44:09;2.08;;;1.58;;
37771;SDS011;23610;59.380;24.642;2022-08-03T17:49:29;2.40;;;1.25;;
37771;SDS011;23610;59.380;24.642;2022-08-03T18:00:37;6.78;;;2.13;;
37771;SDS011;23610;59.380;24.642;2022-08-03T18:06:05;6.57;;;2.03;;
37771;SDS011;23610;59.380;24.642;2022-08-03T18:11:13;3.88;;;1.80;;
37771;SDS011;23610;59.380;24.642;2022-08-03T18:16:26;10.40;;;1.75;;
37771;SDS011;23610;59.380;24.642;2022-08-03T18:21:42;4.50;;;1.80;;
37771;SDS011;23610;59.380;24.642;2022-08-03T18:27:04;4.57;;;1.52;;
37771;SDS011;23610;59.380;24.642;2022-08-03T18:32:08;4.63;;;1.80;;
37771;SDS011;23610;59.380;24.642;2022-08-03T18:37:17;4.63;;;1.73;;
37771;SDS011;23610;59.380;24.642;2022-08-03T18:42:26;4.75;;;1.95;;
37771;SDS011;23610;59.380;24.642;2022-08-03T19:04:50;4.13;;;1.30;;
37771;SDS011;23610;59.380;24.642;2022-08-03T19:09:58;4.47;;;1.55;;
37771;SDS011;23610;59.380;24.642;2022-08-03T19:15:29;2.85;;;1.20;;
37771;SDS011;23610;59.380;24.642;2022-08-03T19:21:00;3.50;;;1.75;;
37771;SDS011;23610;59.380;24.642;2022-08-03T19:26:35;2.80;;;1.20;;
37771;SDS011;23610;59.380;24.642;2022-08-03T19:31:59;3.72;;;1.73;;
37771;SDS011;23610;59.380;24.642;2022-08-03T19:37:21;7.10;;;1.52;;
37771;SDS011;23610;59.380;24.642;2022-08-03T19:42:58;3.72;;;1.55;;
37771;SDS011;23610;59.380;24.642;2022-08-03T19:48:36;1.52;;;1.33;;
37771;SDS011;23610;59.380;24.642;2022-08-03T19:54:01;10.50;;;3.20;;
37771;SDS011;23610;59.380;24.642;2022-08-03T19:59:24;1.95;;;1.20;;
37771;SDS011;23610;59.380;24.642;2022-08-03T20:04:46;4.70;;;1.77;;
37771;SDS011;23610;59.380;24.642;2022-08-03T20:10:09;5.97;;;1.70;;
37771;SDS011;23610;59.380;24.642;2022-08-03T20:15:33;2.53;;;1.52;;
37771;SDS011;23610;59.380;24.642;2022-08-03T20:28:55;7.18;;;1.85;;
37771;SDS011;23610;59.380;24.642;2022-08-03T20:34:29;6.25;;;1.65;;
37771;SDS011;23610;59.380;24.642;2022-08-03T20:39:51;6.07;;;1.85;;
37771;SDS011;23610;59.380;24.642;2022-08-03T20:45:13;10.38;;;1.40;;
37771;SDS011;23610;59.380;24.642;2022-08-03T20:50:55;6.68;;;1.50;;
37771;SDS011;23610;59.380;24.642;2022-08-03T20:56:17;2.78;;;1.65;;
37771;SDS011;23610;59.380;24.642;2022-08-03T21:01:42;3.58;;;1.70;;
37771;SDS011;23610;59.380;24.642;2022-08-03T21:07:04;5.63;;;1.75;;
37771;SDS011;23610;59.380;24.642;2022-08-03T21:12:42;3.85;;;1.13;;
37771;SDS011;23610;59.380;24.642;2022-08-03T21:18:35;3.65;;;1.65;;
37771;SDS011;23610;59.380;24.642;2022-08-03T21:24:01;6.22;;;1.60;;
37771;SDS011;23610;59.380;24.642;2022-08-03T21:29:24;6.88;;;1.65;;
37771;SDS011;23610;59.380;24.642;2022-08-03T21:34:47;5.88;;;1.60;;
37771;SDS011;23610;59.380;24.642;2022-08-03T21:40:09;5.22;;;1.30;;
37771;SDS011;23610;59.380;24.642;2022-08-03T21:45:34;7.13;;;1.80;;
37771;SDS011;23610;59.380;24.642;2022-08-03T21:51:08;3.85;;;1.90;;
37771;SDS011;23610;59.380;24.642;2022-08-03T21:56:35;2.35;;;1.00;;
37771;SDS011;23610;59.380;24.642;2022-08-03T22:02:01;3.67;;;1.20;;
37771;SDS011;23610;59.380;24.642;2022-08-03T22:07:27;6.65;;;1.45;;
37771;SDS011;23610;59.380;24.642;2022-08-03T22:12:50;2.03;;;1.40;;
37771;SDS011;23610;59.380;24.642;2022-08-03T22:18:12;5.78;;;2.25;;
37771;SDS011;23610;59.380;24.642;2022-08-03T22:23:41;5.15;;;1.73;;
37771;SDS011;23610;59.380;24.642;2022-08-03T22:29:10;6.45;;;1.35;;
37771;SDS011;23610;59.380;24.642;2022-08-03T22:34:31;8.57;;;1.65;;
37771;SDS011;23610;59.380;24.642;2022-08-03T22:39:53;2.65;;;0.90;;
37771;SDS011;23610;59.380;24.642;2022-08-03T22:45:16;6.07;;;1.13;;
37771;SDS011;23610;59.380;24.642;2022-08-03T22:50:58;4.93;;;1.40;;
37771;SDS011;23610;59.380;24.642;2022-08-03T22:56:19;3.63;;;1.55;;
37771;SDS011;23610;59.380;24.642;2022-08-03T23:01:42;1.77;;;0.90;;
37771;SDS011;23610;59.380;24.642;2022-08-03T23:07:06;3.72;;;1.30;;
37771;SDS011;23610;59.380;24.642;2022-08-03T23:12:33;3.83;;;1.15;;
37771;SDS011;23610;59.380;24.642;2022-08-03T23:17:56;2.13;;;1.02;;
37771;SDS011;23610;59.380;24.642;2022-08-03T23:23:19;2.80;;;0.80;;
37771;SDS011;23610;59.380;24.642;2022-08-03T23:28:45;5.22;;;1.30;;
37771;SDS011;23610;59.380;24.642;2022-08-03T23:34:07;3.45;;;1.63;;
37771;SDS011;23610;59.380;24.642;2022-08-03T23:39:50;7.22;;;1.42;;
37771;SDS011;23610;59.380;24.642;2022-08-03T23:45:13;3.60;;;1.08;;
37771;SDS011;23610;59.380;24.642;2022-08-03T23:50:42;3.63;;;1.20;;
